EDDS 210050Z VRB01KT 9999 BKN017 12/09 Q1024 EDDS 210020Z 05003KT 9999 BKN020 12/09 Q1024 EDDS 202350Z 06003KT 9999 SCT020 OVC048 12/09 Q1023 EDDS 202320Z 04004KT 9999 BKN040 12/09 Q1023 EDDS 202250Z 04003KT 350V060 9999 BKN038 12/10 Q1023 EDDS 202220Z 35003KT 330V060 9999 BKN035 12/10 Q1023 EDDS 202150Z VRB01KT 9999 BKN035 12/09 Q1023 EDDS 202120Z VRB01KT 9999 SCT032 11/09 Q1023 EDDS 202050Z 04003KT 9999 FEW019 12/09 Q1023 EDDS 202020Z 02003KT 340V060 9999 FEW019 SCT028 13/10 Q1023 EDDS 201950Z 35003KT 9999 FEW019 SCT028 13/10 Q1022 NOSIG EDDS 201920Z 02006KT 9999 FEW019 SCT027 14/10 Q1022 NOSIG EDDS 201850Z 02004KT 350V060 9999 FEW030 14/11 Q1022 NOSIG EDDS 201820Z 02006KT 9999 FEW030 14/11 Q1021 NOSIG EDDS 201750Z 01005KT 9999 FEW030 15/11 Q1021 NOSIG EDDS 201720Z 36005KT 330V030 9999 FEW030 15/11 Q1021 NOSIG EDDS 201650Z 01007KT 9999 FEW030 15/11 Q1020 NOSIG EDDS 201620Z 36006KT 320V020 9999 FEW030 16/11 Q1020 NOSIG EDDS 201550Z 36006KT 330V040 9999 SCT030 16/11 Q1020 NOSIG EDDS 201520Z 36007KT 330V040 9999 SCT029 16/10 Q1019 NOSIG EDDS 201450Z 06004KT 020V110 9999 SCT027 17/10 Q1019 NOSIG EDDS 201420Z VRB03KT 9999 SCT023 17/10 Q1019 NOSIG EDDS 201350Z 02004KT 320V080 9999 SCT020 17/11 Q1019 NOSIG EDDS 201320Z 04004KT 010V080 9999 SCT020 16/11 Q1019 NOSIG EDDS 201250Z 03005KT 360V060 9999 SCT017 BKN047 16/11 Q1019 NOSIG EDDS 201220Z 02004KT 300V060 9999 SCT016 16/11 Q1019 NOSIG EDDS 201150Z 05004KT 350V080 9999 SCT016 16/11 Q1019 NOSIG EDDS 201120Z 04004KT 350V100 9999 SCT014 15/11 Q1019 NOSIG EDDS 201050Z 06003KT 340V100 9999 SCT013 15/12 Q1019 NOSIG EDDS 201020Z 07003KT 020V150 9999 SCT013 15/12 Q1019 NOSIG EDDS 200950Z 06003KT 010V120 9999 SCT012 15/12 Q1019 NOSIG EDDS 200920Z 05003KT 010V100 9999 BKN010 15/12 Q1019 TEMPO SCT010 EDDS 200850Z 00000KT 9999 BKN010 14/12 Q1019 TEMPO SCT010 EDDS 200820Z 08003KT 050V110 9999 SCT010 14/12 Q1018 TEMPO BKN010 EDDS 200750Z VRB01KT 9999 SCT009 14/11 Q1018 TEMPO BKN010 EDDS 200720Z VRB02KT 9999 FEW009 14/11 Q1018 NOSIG EDDS 200650Z VRB02KT 9999 SCT009 13/11 Q1018 NOSIG EDDS 200620Z VRB01KT 9999 SCT008 BKN012 13/11 Q1018 NOSIG EDDS 200550Z VRB01KT 9999 SCT013 13/11 Q1018 TEMPO BKN013 EDDS 200520Z 15001KT 9999 FEW011 12/11 Q1018 NOSIG EDDS 200450Z 13001KT 9999 FEW014 12/11 Q1017 NOSIG EDDS 200420Z 00000KT 9999 FEW028 BKN048 12/11 Q1017 NOSIG EDDS 200350Z VRB01KT 9999 FEW018 BKN048 13/11 Q1017 EDDS 200320Z 34003KT 320V020 9999 SCT017 BKN049 12/11 Q1017 EDDS 200250Z 34003KT 9999 SCT016 13/11 Q1017 EDDS 200220Z VRB02KT 9999 FEW017 12/11 Q1017 EDDS 200150Z VRB02KT 9999 FEW017 BKN049 13/11 Q1017 EDDS 200120Z 30004KT 9999 FEW017 BKN048 13/11 Q1017 EDDS 200050Z VRB02KT 9999 FEW016 BKN043 13/11 Q1017 EDDS 200020Z 32004KT 9999 FEW016 BKN043 13/11 Q1017 EDDS 192350Z 35003KT 320V030 9999 FEW017 BKN042 13/11 Q1017 EDDS 192320Z 33005KT 9999 FEW021 BKN041 13/11 Q1016 EDDS 192250Z 33006KT 9999 FEW021 BKN041 13/11 Q1016 EDDS 192220Z 34003KT 9999 FEW032 BKN037 13/11 Q1016 EDDS 192150Z VRB01KT 9999 FEW029 BKN037 13/11 Q1016 EDDS 192120Z 30003KT 9999 FEW031 BKN037 13/10 Q1016 EDDS 192050Z 08004KT 9999 FEW031 BKN041 14/11 Q1016 EDDS 192020Z 36006KT 9999 FEW031 BKN041 15/11 Q1016 EDDS 191950Z 35008KT 330V030 9999 FEW025 BKN031 15/11 Q1016 NOSIG EDDS 191920Z 35006KT 320V020 9999 SCT031 15/11 Q1015 NOSIG EDDS 191850Z 33005KT 9999 SCT035 15/11 Q1015 NOSIG EDDS 191820Z 33005KT 9999 FEW035 15/11 Q1015 NOSIG EDDS 191750Z 34005KT 9999 SCT031 15/11 Q1014 NOSIG EDDS 191720Z 34007KT 9999 SCT031 16/11 Q1014 NOSIG EDDS 191650Z 35008KT 9999 SCT031 17/11 Q1014 NOSIG EDDS 191620Z 36009KT 320V020 9999 SCT031 17/11 Q1013 NOSIG EDDS 191550Z 36008KT 320V040 9999 SCT032 18/11 Q1013 NOSIG EDDS 191520Z 03010KT 340V060 9999 SCT032 18/11 Q1013 NOSIG EDDS 191450Z 35010KT 320V020 9999 SCT036 19/11 Q1013 NOSIG EDDS 191420Z 35009KT 9999 SCT036 19/11 Q1013 NOSIG EDDS 191350Z 01009KT 330V060 9999 BKN036 20/12 Q1013 NOSIG EDDS 191320Z 02007KT 320V060 9999 BKN036 20/11 Q1013 NOSIG

METAR Messwerte

Zurück zur Übersicht

Ort
m ü. NN
Zeit Temperatur Taupunkt Rel.
Luftfeuchte
Luftdruck:
Altimeter
NN
Station
Wind in Beaufort
(Knoten)
Sichtweite
(Meter)
Wolken
(Meter über Grund)
Wettererscheinung
Stuttgart
419
Di 21.09. 02:5012982 %1024
1025
974
Uml 1 (1)>= 10000Stark bewölkt (520) 
Stuttgart
419
Di 21.09. 02:2012982 %1024
1025
974
NO 2 (3)>= 10000Stark bewölkt (610) 
Stuttgart
419
Di 21.09. 01:5012982 %1023
1024
973
ONO 2 (3)>= 10000Bedeckt (1500)
Wolkig (610)
 
Stuttgart
419
Di 21.09. 01:2012982 %1023
1024
973
NO 2 (4)>= 10000Stark bewölkt (1200) 
Stuttgart
419
Di 21.09. 00:50121088 %1023
1024
973
NO 2 (3)
N - ONO
>= 10000Stark bewölkt (1200) 
Stuttgart
419
Di 21.09. 00:20121088 %1023
1024
973
N 2 (3)
NNW - ONO
>= 10000Stark bewölkt (1100) 
Stuttgart
419
Mo 20.09. 23:5012982 %1023
1024
973
Uml 1 (1)>= 10000Stark bewölkt (1100) 
Stuttgart
419
Mo 20.09. 23:2011987 %1023
1024
973
Uml 1 (1)>= 10000Wolkig (980) 
Stuttgart
419
Mo 20.09. 22:5012982 %1023
1024
973
NO 2 (3)>= 10000Leicht bewölkt (580) 
Stuttgart
419
Mo 20.09. 22:20131082 %1023
1023
973
NNO 2 (3)
NNW - ONO
>= 10000Wolkig (850)
Leicht bewölkt (580)
 
Stuttgart
419
Mo 20.09. 21:50131082 %1022
1022
972
N 2 (3)>= 10000Wolkig (850)
Leicht bewölkt (580)
 
Stuttgart
419
Mo 20.09. 21:20141077 %1022
1022
972
NNO 2 (6)>= 10000Wolkig (820)
Leicht bewölkt (580)
 
Stuttgart
419
Mo 20.09. 20:50141182 %1022
1022
972
NNO 2 (4)
N - ONO
>= 10000Leicht bewölkt (910) 
Stuttgart
419
Mo 20.09. 20:20141182 %1021
1021
971
NNO 2 (6)>= 10000Leicht bewölkt (910) 
Stuttgart
419
Mo 20.09. 19:50151177 %1021
1021
971
N 2 (5)>= 10000Leicht bewölkt (910) 
Stuttgart
419
Mo 20.09. 19:20151177 %1021
1021
971
N 2 (5)
NNW - NNO
>= 10000Leicht bewölkt (910) 
Stuttgart
419
Mo 20.09. 18:50151177 %1020
1020
970
N 3 (7)>= 10000Leicht bewölkt (910) 
Stuttgart
419
Mo 20.09. 18:20161172 %1020
1020
970
N 2 (6)
NW - NNO
>= 10000Leicht bewölkt (910) 
Stuttgart
419
Mo 20.09. 17:50161172 %1020
1020
970
N 2 (6)
NNW - NO
>= 10000Wolkig (910) 
Stuttgart
419
Mo 20.09. 17:20161068 %1019
1019
969
N 3 (7)
NNW - NO
>= 10000Wolkig (880) 
Stuttgart
419
Mo 20.09. 16:50171063 %1019
1019
969
ONO 2 (4)
NNO - OSO
>= 10000Wolkig (820) 
Stuttgart
419
Mo 20.09. 16:20171063 %1019
1019
969
Uml 2 (3)>= 10000Wolkig (700) 
Stuttgart
419
Mo 20.09. 15:50171168 %1019
1019
969
NNO 2 (4)
NW - O
>= 10000Wolkig (610) 
Stuttgart
419
Mo 20.09. 15:20161172 %1019
1019
969
NO 2 (4)
N - O
>= 10000Wolkig (610) 
Stuttgart
419
Mo 20.09. 14:50161172 %1019
1019
969
NNO 2 (5)
N - ONO
>= 10000Stark bewölkt (1400)
Wolkig (520)
 
Stuttgart
419
Mo 20.09. 14:20161172 %1019
1019
969
NNO 2 (4)
WNW - ONO
>= 10000Wolkig (490) 
Stuttgart
419
Mo 20.09. 13:50161172 %1019
1019
969
NO 2 (4)
N - O
>= 10000Wolkig (490) 
Stuttgart
419
Mo 20.09. 13:20151177 %1019
1019
969
NO 2 (4)
N - O
>= 10000Wolkig (430) 
Stuttgart
419
Mo 20.09. 12:50151282 %1019
1019
969
ONO 2 (3)
NNW - O
>= 10000Wolkig (400) 
Stuttgart
419
Mo 20.09. 12:20151282 %1019
1019
969
ONO 2 (3)
NNO - SSO
>= 10000Wolkig (400) 
Stuttgart
419
Mo 20.09. 11:50151282 %1019
1019
969
ONO 2 (3)
N - OSO
>= 10000Wolkig (370) 
Stuttgart
419
Mo 20.09. 11:20151282 %1019
1019
969
NO 2 (3)
N - O
>= 10000Stark bewölkt (300) 
Stuttgart
419
Mo 20.09. 10:50141288 %1019
1019
969
Windstill>= 10000Stark bewölkt (300) 
Stuttgart
419
Mo 20.09. 10:20141288 %1018
1018
968
O 2 (3)
NO - OSO
>= 10000Wolkig (300) 
Stuttgart
419
Mo 20.09. 09:50141182 %1018
1018
968
Uml 1 (1)>= 10000Wolkig (270) 
Stuttgart
419
Mo 20.09. 09:20141182 %1018
1018
968
Uml 1 (2)>= 10000Leicht bewölkt (270) 
Stuttgart
419
Mo 20.09. 08:50131188 %1018
1018
968
Uml 1 (2)>= 10000Wolkig (270) 
Stuttgart
419
Mo 20.09. 08:20131188 %1018
1018
968
Uml 1 (1)>= 10000Stark bewölkt (370)
Wolkig (240)
 
Stuttgart
419
Mo 20.09. 07:50131188 %1018
1018
968
Uml 1 (1)>= 10000Wolkig (400) 
Stuttgart
419
Mo 20.09. 07:20121194 %1018
1019
968
SSO 1 (1)>= 10000Leicht bewölkt (340) 
Stuttgart
419
Mo 20.09. 06:50121194 %1017
1018
968
SO 1 (1)>= 10000Leicht bewölkt (430) 
Stuttgart
419
Mo 20.09. 06:20121194 %1017
1018
968
Windstill>= 10000Stark bewölkt (1500)
Leicht bewölkt (850)
 
Stuttgart
419
Mo 20.09. 05:50131188 %1017
1017
968
Uml 1 (1)>= 10000Stark bewölkt (1500)
Leicht bewölkt (550)
 
Stuttgart
419
Mo 20.09. 05:20121194 %1017
1018
968
NNW 2 (3)
NW - NNO
>= 10000Stark bewölkt (1500)
Wolkig (520)
 
Stuttgart
419
Mo 20.09. 04:50131188 %1017
1017
968
NNW 2 (3)>= 10000Wolkig (490) 
Stuttgart
419
Mo 20.09. 04:20121194 %1017
1018
968
Uml 1 (2)>= 10000Leicht bewölkt (520) 
Stuttgart
419
Mo 20.09. 03:50131188 %1017
1017
968
Uml 1 (2)>= 10000Stark bewölkt (1500)
Leicht bewölkt (520)
 
Stuttgart
419
Mo 20.09. 03:20131188 %1017
1017
968
WNW 2 (4)>= 10000Stark bewölkt (1500)
Leicht bewölkt (520)
 
Stuttgart
419
Mo 20.09. 02:50131188 %1017
1017
968
Uml 1 (2)>= 10000Stark bewölkt (1300)
Leicht bewölkt (490)
 
Stuttgart
419
Mo 20.09. 02:20131188 %1017
1017
968
NW 2 (4)>= 10000Stark bewölkt (1300)
Leicht bewölkt (490)
 
Stuttgart
419
Mo 20.09. 01:50131188 %1017
1017
968
N 2 (3)
NW - NNO
>= 10000Stark bewölkt (1300)
Leicht bewölkt (520)
 
Stuttgart
419
Mo 20.09. 01:20131188 %1016
1016
967
NNW 2 (5)>= 10000Stark bewölkt (1200)
Leicht bewölkt (640)
 
Stuttgart
419
Mo 20.09. 00:50131188 %1016
1016
967
NNW 2 (6)>= 10000Stark bewölkt (1200)
Leicht bewölkt (640)
 
Stuttgart
419
Mo 20.09. 00:20131188 %1016
1016
967
NNW 2 (3)>= 10000Stark bewölkt (1100)
Leicht bewölkt (980)
 
Stuttgart
419
So 19.09. 23:50131188 %1016
1016
967
Uml 1 (1)>= 10000Stark bewölkt (1100)
Leicht bewölkt (880)
 
Stuttgart
419
So 19.09. 23:20131082 %1016
1016
967
WNW 2 (3)>= 10000Stark bewölkt (1100)
Leicht bewölkt (940)
 
Stuttgart
419
So 19.09. 22:50141182 %1016
1016
967
O 2 (4)>= 10000Stark bewölkt (1200)
Leicht bewölkt (940)
 
Stuttgart
419
So 19.09. 22:20151177 %1016
1016
967
N 2 (6)>= 10000Stark bewölkt (1200)
Leicht bewölkt (940)
 
Stuttgart
419
So 19.09. 21:50151177 %1016
1016
967
N 3 (8)
NNW - NNO
>= 10000Stark bewölkt (940)
Leicht bewölkt (760)
 
Stuttgart
419
So 19.09. 21:20151177 %1015
1015
966
N 2 (6)
NW - NNO
>= 10000Wolkig (940) 
Stuttgart
419
So 19.09. 20:50151177 %1015
1015
966
NNW 2 (5)>= 10000Wolkig (1100) 
Stuttgart
419
So 19.09. 20:20151177 %1015
1015
966
NNW 2 (5)>= 10000Leicht bewölkt (1100) 
Stuttgart
419
So 19.09. 19:50151177 %1014
1014
965
NNW 2 (5)>= 10000Wolkig (940) 
Stuttgart
419
So 19.09. 19:20161172 %1014
1014
965
NNW 3 (7)>= 10000Wolkig (940) 
Stuttgart
419
So 19.09. 18:50171168 %1014
1014
965
N 3 (8)>= 10000Wolkig (940) 
Stuttgart
419
So 19.09. 18:20171168 %1013
1013
964
N 3 (9)
NW - NNO
>= 10000Wolkig (940) 
Stuttgart
419
So 19.09. 17:50181164 %1013
1012
964
N 3 (8)
NW - NO
>= 10000Wolkig (980) 
Stuttgart
419
So 19.09. 17:20181164 %1013
1012
964
NNO 3 (10)
NNW - ONO
>= 10000Wolkig (980) 
Stuttgart
419
So 19.09. 16:50191160 %1013
1012
964
N 3 (10)
NW - NNO
>= 10000Wolkig (1100) 
Stuttgart
419
So 19.09. 16:20191160 %1013
1012
964
N 3 (9)>= 10000Wolkig (1100) 
Stuttgart
419
So 19.09. 15:50201260 %1013
1012
964
N 3 (9)
NNW - ONO
>= 10000Stark bewölkt (1100) 
Stuttgart
419
So 19.09. 15:20201156 %1013
1012
964
NNO 3 (7)
NW - ONO
>= 10000Stark bewölkt (1100) 

Altimeter: Einstellung am Altimeter (Höhenmesser), die Höhe 0 muss auf diesen Luftdruckwert zeigen, damit das Gerät die Stationshöhe richtig anzeigt.

NN: Luftdruck reduziert auf "Normal Null", auf Meereshöhe, dieser von der Temperatur abhängige Wert wird bisweilen unkorrekt einfach als "Luftdruck" bezeichnet. Eigentlich nur eine fiktive Größe, die es erlaubt, Stationen auf unterschiedlichen Höhen miteinander zu vergleichen.

Station: Realer Luftdruck an der Station.